createdAt,value
2024-01-09T00:00:23.478Z,102204.83
2024-01-09T00:04:29.254Z,102206.61
2024-01-09T00:06:58.648Z,102212.55
2024-01-09T00:09:35.133Z,102217.45
2024-01-09T00:12:04.205Z,102221.33
2024-01-09T00:14:33.073Z,102221.05
2024-01-09T00:17:02.024Z,102222.31
2024-01-09T00:19:33.685Z,102225.86
2024-01-09T00:22:06.245Z,102223.39
2024-01-09T00:24:34.669Z,102222.07
2024-01-09T00:27:03.514Z,102219.90
2024-01-09T00:29:33.764Z,102216.32
2024-01-09T00:32:02.314Z,102220.20
2024-01-09T00:34:30.816Z,102218.49
2024-01-09T00:36:59.185Z,102218.98
2024-01-09T00:39:27.751Z,102216.59
2024-01-09T00:41:56.224Z,102214.89
2024-01-09T00:44:24.759Z,102213.31
2024-01-09T00:46:53.270Z,102212.55
2024-01-09T00:49:21.829Z,102213.65
2024-01-09T00:51:50.295Z,102219.33
2024-01-09T00:54:18.784Z,102213.29
2024-01-09T00:56:48.116Z,102210.95
2024-01-09T00:59:16.685Z,102210.67
2024-01-09T01:01:57.055Z,102215.96
2024-01-09T01:04:25.679Z,102212.98
2024-01-09T01:06:55.132Z,102212.69
2024-01-09T01:09:24.217Z,102214.98
2024-01-09T01:15:39.849Z,102217.11
2024-01-09T01:18:29.029Z,102215.44
2024-01-09T01:21:17.170Z,102219.19
2024-01-09T01:26:53.882Z,102219.00
2024-01-09T01:29:46.019Z,102222.83
2024-01-09T01:32:56.911Z,102230.25
2024-01-09T01:35:35.846Z,102226.41
2024-01-09T01:44:16.240Z,102233.70
2024-01-09T01:46:48.463Z,102230.83
2024-01-09T01:49:19.166Z,102228.12
2024-01-09T01:51:50.870Z,102228.34
2024-01-09T01:54:19.917Z,102229.39
2024-01-09T01:57:12.328Z,102227.06
2024-01-09T02:00:20.744Z,102234.67
2024-01-09T02:03:15.770Z,102234.02
2024-01-09T02:06:19.029Z,102236.28
2024-01-09T02:08:58.261Z,102239.48
2024-01-09T02:11:42.634Z,102241.98
2024-01-09T02:14:09.900Z,102240.94
2024-01-09T02:16:58.910Z,102243.37
2024-01-09T02:19:26.852Z,102243.94
2024-01-09T02:21:54.276Z,102245.89
2024-01-09T02:24:21.500Z,102245.81
2024-01-09T02:27:21.957Z,102247.77
2024-01-09T02:29:54.912Z,102248.91
2024-01-09T02:32:22.219Z,102252.88
2024-01-09T02:34:51.187Z,102252.05
2024-01-09T02:37:18.215Z,102256.33
2024-01-09T02:39:45.284Z,102254.88
2024-01-09T02:42:13.622Z,102259.30
2024-01-09T02:44:40.696Z,102260.03
2024-01-09T02:47:08.083Z,102260.89
2024-01-09T02:49:36.420Z,102261.55
2024-01-09T02:52:04.135Z,102261.79
2024-01-09T02:54:31.161Z,102265.36
2024-01-09T02:56:58.330Z,102265.64
2024-01-09T02:59:26.615Z,102268.38
2024-01-09T03:01:53.951Z,102263.45
2024-01-09T03:04:21.239Z,102257.05
2024-01-09T03:06:48.474Z,102257.17
2024-01-09T03:09:16.779Z,102255.73
2024-01-09T03:11:44.837Z,102249.58
2024-01-09T03:14:13.669Z,102252.86
2024-01-09T03:16:41.263Z,102246.05
2024-01-09T03:19:08.302Z,102244.98
2024-01-09T03:21:35.319Z,102254.59
2024-01-09T03:24:02.924Z,102251.41
2024-01-09T03:26:30.110Z,102250.23
2024-01-09T03:28:58.538Z,102251.97
2024-01-09T03:31:26.610Z,102250.32
2024-01-09T03:33:53.790Z,102245.31
2024-01-09T03:36:20.965Z,102237.85
2024-01-09T03:38:48.948Z,102241.33
2024-01-09T03:41:16.037Z,102246.90
2024-01-09T03:43:43.061Z,102248.42
2024-01-09T03:46:10.224Z,102251.64
2024-01-09T03:48:37.441Z,102247.41
2024-01-09T03:51:05.026Z,102247.04
2024-01-09T03:53:32.057Z,102245.19
2024-01-09T03:55:59.157Z,102244.29
2024-01-09T03:58:26.451Z,102239.34
2024-01-09T04:00:54.041Z,102240.46
2024-01-09T04:03:21.124Z,102247.34
2024-01-09T04:05:48.422Z,102242.42
2024-01-09T04:08:15.550Z,102242.39
2024-01-09T04:10:42.720Z,102247.39
2024-01-09T04:13:10.073Z,102244.88
2024-01-09T04:15:37.128Z,102253.59
2024-01-09T04:18:04.759Z,102255.87
2024-01-09T04:20:31.968Z,102258.11
2024-01-09T04:22:59.188Z,102264.80
2024-01-09T04:25:26.226Z,102257.30
2024-01-09T04:27:53.289Z,102257.70
2024-01-09T04:30:20.590Z,102260.23
2024-01-09T04:33:52.654Z,102257.27
2024-01-09T04:36:21.234Z,102254.58
2024-01-09T04:38:49.856Z,102254.25
2024-01-09T04:41:18.928Z,102252.45
2024-01-09T04:43:47.997Z,102253.48
2024-01-09T04:46:16.507Z,102256.66
2024-01-09T04:48:45.035Z,102258.34
2024-01-09T04:51:13.596Z,102261.02
2024-01-09T04:53:42.112Z,102262.84
2024-01-09T04:56:10.599Z,102262.44
2024-01-09T04:58:39.079Z,102264.30
2024-01-09T05:01:14.772Z,102266.64
2024-01-09T05:03:48.373Z,102267.98
2024-01-09T05:06:18.389Z,102269.15
2024-01-09T05:08:48.910Z,102277.59
2024-01-09T05:11:19.519Z,102276.04
2024-01-09T05:13:48.672Z,102278.86
2024-01-09T05:16:17.051Z,102288.22
2024-01-09T05:18:46.122Z,102285.27
2024-01-09T05:21:24.726Z,102289.63
2024-01-09T05:23:56.040Z,102286.39
2024-01-09T05:26:24.536Z,102288.19
2024-01-09T05:28:53.122Z,102287.95
2024-01-09T05:31:21.976Z,102285.98
2024-01-09T05:33:51.130Z,102283.69
2024-01-09T05:36:23.592Z,102286.74
2024-01-09T05:38:53.202Z,102289.34
2024-01-09T05:41:25.084Z,102292.45
2024-01-09T05:43:53.858Z,102290.29
2024-01-09T05:46:22.246Z,102294.90
2024-01-09T05:48:50.835Z,102294.41
2024-01-09T05:51:19.757Z,102299.41
2024-01-09T05:53:51.215Z,102297.63
2024-01-09T05:56:20.911Z,102297.84
2024-01-09T05:58:51.488Z,102296.48
2024-01-09T06:01:20.883Z,102305.77
2024-01-09T06:03:49.497Z,102306.96
2024-01-09T06:06:18.079Z,102311.70
2024-01-09T06:08:47.276Z,102311.02
2024-01-09T06:11:15.908Z,102309.30
2024-01-09T06:13:44.317Z,102315.86
2024-01-09T06:16:13.360Z,102318.52
2024-01-09T06:18:42.753Z,102322.56
2024-01-09T06:21:14.798Z,102323.02
2024-01-09T06:23:44.580Z,102327.25
2024-01-09T06:26:15.078Z,102323.49
2024-01-09T06:28:44.300Z,102329.71
2024-01-09T06:31:12.904Z,102335.23
2024-01-09T06:33:41.520Z,102337.91
2024-01-09T06:36:10.060Z,102342.37
2024-01-09T06:38:39.906Z,102345.36
2024-01-09T06:41:08.453Z,102351.99
2024-01-09T06:43:37.251Z,102355.51
2024-01-09T06:46:05.722Z,102352.06
2024-01-09T06:48:34.563Z,102354.44
2024-01-09T06:51:03.202Z,102357.75
2024-01-09T06:53:31.743Z,102364.42
2024-01-09T06:56:00.558Z,102365.71
2024-01-09T06:58:29.096Z,102368.71
2024-01-09T07:00:57.809Z,102373.05
2024-01-09T07:03:26.376Z,102367.45
2024-01-09T07:05:55.353Z,102371.80
2024-01-09T07:08:24.536Z,102375.25
2024-01-09T07:10:52.990Z,102374.65
2024-01-09T07:13:21.467Z,102370.71
2024-01-09T07:15:53.289Z,102369.28
2024-01-09T07:18:23.424Z,102366.86
2024-01-09T07:20:52.584Z,102367.31
2024-01-09T07:23:21.267Z,102371.10
2024-01-09T07:25:51.500Z,102370.02
2024-01-09T07:28:20.858Z,102372.67
2024-01-09T07:30:49.471Z,102370.20
2024-01-09T07:33:19.935Z,102371.63
2024-01-09T07:35:48.679Z,102365.05
2024-01-09T07:38:23.318Z,102370.65
2024-01-09T07:40:52.059Z,102375.89
2024-01-09T07:43:21.105Z,102378.56
2024-01-09T07:45:49.849Z,102374.64
2024-01-09T07:51:03.000Z,102374.18
2024-01-09T07:53:32.606Z,102373.30
2024-01-09T07:56:03.836Z,102367.31
2024-01-09T07:58:32.458Z,102368.30
2024-01-09T08:01:00.950Z,102370.79
2024-01-09T08:03:30.288Z,102371.06
2024-01-09T08:05:59.586Z,102369.88
2024-01-09T08:08:28.127Z,102374.57
2024-01-09T08:10:57.142Z,102377.06
2024-01-09T08:13:25.952Z,102376.92
2024-01-09T08:15:55.815Z,102373.20
2024-01-09T08:18:26.536Z,102373.53
2024-01-09T08:20:55.349Z,102372.88
2024-01-09T08:23:25.701Z,102379.10
2024-01-09T08:25:54.861Z,102378.04
2024-01-09T08:28:23.511Z,102378.80
2024-01-09T08:30:51.878Z,102373.03
2024-01-09T08:33:23.898Z,102373.14
2024-01-09T08:35:54.403Z,102371.40
2024-01-09T08:38:23.016Z,102365.38
2024-01-09T08:40:57.568Z,102365.14
2024-01-09T08:43:26.043Z,102369.45
2024-01-09T08:45:57.966Z,102372.73
2024-01-09T08:48:28.567Z,102377.36
2024-01-09T08:50:58.029Z,102378.34
2024-01-09T08:53:29.736Z,102377.88
2024-01-09T08:55:58.980Z,102377.58
2024-01-09T08:58:28.236Z,102375.01
2024-01-09T09:00:56.707Z,102372.41
2024-01-09T09:03:29.443Z,102372.33
2024-01-09T09:05:58.685Z,102372.96
2024-01-09T09:08:28.181Z,102373.27
2024-01-09T09:10:56.757Z,102374.25
2024-01-09T09:13:25.147Z,102367.73
2024-01-09T09:15:53.688Z,102360.09
2024-01-09T09:18:23.556Z,102357.58
2024-01-09T09:20:53.062Z,102354.80
2024-01-09T09:23:22.474Z,102355.43
2024-01-09T09:25:51.428Z,102358.00
2024-01-09T09:28:19.812Z,102359.44
2024-01-09T09:30:48.455Z,102357.33
2024-01-09T09:33:17.908Z,102355.30
2024-01-09T09:35:46.369Z,102356.44
2024-01-09T09:38:17.003Z,102357.79
2024-01-09T09:40:45.540Z,102355.58
2024-01-09T09:43:22.662Z,102352.25
2024-01-09T09:46:04.154Z,102353.38
2024-01-09T09:48:34.318Z,102354.23
2024-01-09T09:51:04.304Z,102355.98
2024-01-09T09:53:33.506Z,102354.70
2024-01-09T09:56:10.525Z,102356.81
2024-01-09T09:58:44.538Z,102353.95
2024-01-09T10:01:15.358Z,102354.40
2024-01-09T10:04:03.677Z,102354.55
2024-01-09T10:06:34.620Z,102352.30
2024-01-09T10:09:05.366Z,102351.33
2024-01-09T10:11:33.887Z,102353.64
2024-01-09T10:14:02.895Z,102347.69
2024-01-09T10:17:05.246Z,102348.77
2024-01-09T10:19:36.292Z,102346.52
2024-01-09T10:22:06.765Z,102345.69
2024-01-09T10:24:37.653Z,102346.37
2024-01-09T10:27:09.478Z,102344.85
2024-01-09T10:29:43.815Z,102336.11
2024-01-09T10:32:15.556Z,102331.96
2024-01-09T10:34:46.918Z,102331.43
2024-01-09T10:37:16.021Z,102333.90
2024-01-09T10:39:49.195Z,102333.46
2024-01-09T10:42:19.014Z,102332.52
2024-01-09T10:44:51.202Z,102332.79
2024-01-09T10:47:21.937Z,102321.86
2024-01-09T10:49:51.590Z,102320.73
2024-01-09T10:52:21.696Z,102316.14
2024-01-09T10:54:51.435Z,102313.63
2024-01-09T10:57:19.989Z,102312.98
2024-01-09T10:59:48.632Z,102308.71
2024-01-09T11:02:23.047Z,102308.02
2024-01-09T11:04:52.547Z,102302.90
2024-01-09T11:07:22.710Z,102302.90
2024-01-09T11:09:52.966Z,102306.48
2024-01-09T11:12:40.671Z,102308.36
2024-01-09T11:18:17.599Z,102293.56
2024-01-09T11:20:46.521Z,102291.33
2024-01-09T11:23:15.173Z,102290.77
2024-01-09T11:25:51.776Z,102283.55
2024-01-09T11:28:38.658Z,102283.38
2024-01-09T11:31:32.446Z,102284.79
2024-01-09T11:34:04.849Z,102281.20
2024-01-09T11:36:40.508Z,102276.70
2024-01-09T11:39:10.890Z,102271.70
2024-01-09T11:41:47.154Z,102266.40
2024-01-09T11:44:33.411Z,102264.49
2024-01-09T11:47:05.471Z,102260.16
2024-01-09T11:49:35.417Z,102261.30
2024-01-09T11:52:07.600Z,102262.93
2024-01-09T11:54:45.222Z,102264.58
2024-01-09T11:57:15.821Z,102263.27
2024-01-09T12:00:22.068Z,102260.90
2024-01-09T12:03:01.627Z,102261.99
2024-01-09T12:09:29.098Z,102258.67
2024-01-09T12:13:00.009Z,102255.58
2024-01-09T12:16:30.753Z,102254.73
2024-01-09T12:19:43.937Z,102250.44
2024-01-09T12:22:41.395Z,102253.90
2024-01-09T12:25:12.693Z,102251.11
2024-01-09T12:32:09.765Z,102248.84
2024-01-09T12:34:53.634Z,102250.88
2024-01-09T12:37:34.468Z,102252.80
2024-01-09T12:40:11.276Z,102252.14
2024-01-09T12:46:13.220Z,102245.84
2024-01-09T12:48:45.925Z,102237.72
2024-01-09T12:51:17.719Z,102230.15
2024-01-09T12:53:52.456Z,102234.39
2024-01-09T12:56:52.936Z,102233.30
2024-01-09T12:59:30.676Z,102236.29
2024-01-09T13:05:11.858Z,102236.04
2024-01-09T13:07:42.147Z,102237.24
2024-01-09T13:10:27.919Z,102236.02
2024-01-09T13:13:14.383Z,102236.80
2024-01-09T13:18:48.042Z,102236.71
2024-01-09T13:21:16.946Z,102235.05
2024-01-09T13:23:50.218Z,102232.64
2024-01-09T13:26:21.653Z,102227.98
2024-01-09T13:31:24.066Z,102228.44
2024-01-09T13:33:53.786Z,102233.70
2024-01-09T13:36:22.877Z,102237.70
2024-01-09T13:38:53.241Z,102240.80
2024-01-09T13:41:21.821Z,102245.58
2024-01-09T13:43:50.378Z,102248.30
2024-01-09T13:46:19.139Z,102253.23
2024-01-09T13:48:48.078Z,102247.50
2024-01-09T13:53:48.426Z,102248.00
2024-01-09T13:56:17.051Z,102247.07
2024-01-09T13:58:45.689Z,102244.94
2024-01-09T14:01:17.448Z,102237.27
2024-01-09T14:03:47.747Z,102237.63
2024-01-09T14:06:17.844Z,102231.84
2024-01-09T14:08:46.428Z,102236.59
2024-01-09T14:11:16.242Z,102231.45
2024-01-09T14:13:45.377Z,102233.09
2024-01-09T14:16:13.779Z,102225.65
2024-01-09T14:18:42.672Z,102229.13
2024-01-09T14:21:11.612Z,102228.89
2024-01-09T14:23:40.046Z,102228.13
2024-01-09T14:26:08.876Z,102232.26
2024-01-09T14:28:37.563Z,102232.66
2024-01-09T14:31:06.136Z,102228.93
2024-01-09T14:33:34.765Z,102220.81
2024-01-09T14:36:03.721Z,102220.67
2024-01-09T14:38:32.879Z,102218.63
2024-01-09T14:41:04.095Z,102218.83
2024-01-09T14:43:34.881Z,102215.92
2024-01-09T14:46:04.011Z,102220.67
2024-01-09T14:48:32.571Z,102229.69
2024-01-09T14:51:01.067Z,102230.18
2024-01-09T14:53:29.568Z,102237.33
2024-01-09T14:55:58.477Z,102233.89
2024-01-09T14:58:26.951Z,102231.25
2024-01-09T15:00:58.532Z,102232.94
2024-01-09T15:03:27.647Z,102242.63
2024-01-09T15:05:56.977Z,102244.11
2024-01-09T15:08:25.577Z,102241.47
2024-01-09T15:10:55.319Z,102236.42
2024-01-09T15:13:23.696Z,102241.60
2024-01-09T15:15:52.932Z,102247.77
2024-01-09T15:18:21.628Z,102249.05
2024-01-09T15:20:50.111Z,102245.84
2024-01-09T15:23:19.528Z,102247.24
2024-01-09T15:25:48.442Z,102254.04
2024-01-09T15:28:20.643Z,102251.30
2024-01-09T15:30:49.292Z,102249.27
2024-01-09T15:33:22.409Z,102250.10
2024-01-09T15:35:50.833Z,102245.80
2024-01-09T15:38:19.384Z,102247.00
2024-01-09T15:40:48.939Z,102248.09
2024-01-09T15:43:18.629Z,102248.86
2024-01-09T15:45:49.119Z,102245.35
2024-01-09T15:48:17.877Z,102247.27
2024-01-09T15:50:46.466Z,102244.09
2024-01-09T15:53:15.310Z,102243.11
2024-01-09T15:55:44.185Z,102242.25
2024-01-09T15:58:12.986Z,102245.98
2024-01-09T16:00:43.699Z,102250.40
2024-01-09T16:03:18.239Z,102249.32
2024-01-09T16:05:46.910Z,102243.66
2024-01-09T16:08:16.942Z,102239.84
2024-01-09T16:10:46.229Z,102241.92
2024-01-09T16:13:16.338Z,102239.96
2024-01-09T16:15:49.064Z,102246.52
2024-01-09T16:18:19.274Z,102246.09
2024-01-09T16:20:48.104Z,102242.24
2024-01-09T16:32:42.593Z,102241.89
2024-01-09T16:35:11.226Z,102236.13
2024-01-09T16:37:40.016Z,102236.77
2024-01-09T16:40:12.189Z,102242.07
2024-01-09T16:42:41.294Z,102244.48
2024-01-09T16:45:11.058Z,102249.50
2024-01-09T16:47:39.626Z,102252.85
2024-01-09T16:50:09.265Z,102253.09
2024-01-09T16:52:37.794Z,102247.23
2024-01-09T16:55:07.496Z,102251.41
2024-01-09T16:57:36.008Z,102254.91
2024-01-09T17:00:05.834Z,102248.20
2024-01-09T17:02:34.411Z,102242.94
2024-01-09T17:05:04.736Z,102240.46
2024-01-09T17:07:33.317Z,102243.09
2024-01-09T17:10:01.818Z,102242.73
2024-01-09T17:12:31.075Z,102241.04
2024-01-09T17:14:59.579Z,102243.49
2024-01-09T17:17:28.052Z,102241.56
2024-01-09T17:19:56.598Z,102236.29
2024-01-09T17:22:25.115Z,102235.20
2024-01-09T17:24:53.691Z,102231.52
2024-01-09T17:27:22.299Z,102233.41
2024-01-09T17:29:51.888Z,102236.49
2024-01-09T17:32:22.104Z,102236.19
2024-01-09T17:34:50.860Z,102236.79
2024-01-09T17:37:19.406Z,102237.48
2024-01-09T17:39:47.950Z,102236.51
2024-01-09T17:42:16.467Z,102238.05
2024-01-09T17:44:45.288Z,102235.91
2024-01-09T17:47:13.852Z,102232.21
2024-01-09T17:49:42.462Z,102227.96
2024-01-09T17:52:11.320Z,102221.81
2024-01-09T17:54:39.809Z,102219.30
2024-01-09T17:57:08.230Z,102220.11
2024-01-09T17:59:45.078Z,102216.33
2024-01-09T18:02:17.967Z,102214.44
2024-01-09T18:04:47.333Z,102216.21
2024-01-09T18:07:16.159Z,102213.15
2024-01-09T18:09:49.935Z,102216.86
2024-01-09T18:12:18.409Z,102221.77
2024-01-09T18:14:46.984Z,102223.56
2024-01-09T18:17:17.713Z,102228.39
2024-01-09T18:19:46.221Z,102231.88
2024-01-09T18:22:14.742Z,102233.87
2024-01-09T18:24:43.233Z,102228.73
2024-01-09T18:27:11.699Z,102231.21
2024-01-09T18:29:44.404Z,102226.06
2024-01-09T18:32:16.472Z,102228.40
2024-01-09T18:34:45.674Z,102230.52
2024-01-09T18:37:14.443Z,102228.83
2024-01-09T18:39:45.600Z,102227.40
2024-01-09T18:42:17.549Z,102230.42
2024-01-09T18:44:47.430Z,102231.89
2024-01-09T18:47:17.823Z,102226.05
2024-01-09T18:49:47.096Z,102228.09
2024-01-09T18:52:16.814Z,102228.04
2024-01-09T18:54:45.707Z,102228.53
2024-01-09T18:57:14.472Z,102225.65
2024-01-09T18:59:42.975Z,102227.01
2024-01-09T19:02:11.791Z,102228.33
2024-01-09T19:04:44.938Z,102222.31
2024-01-09T19:07:30.321Z,102217.07
2024-01-09T19:09:59.143Z,102224.35
2024-01-09T19:12:29.270Z,102224.33
2024-01-09T19:14:57.788Z,102233.30
2024-01-09T19:17:26.570Z,102233.61
2024-01-09T19:19:56.052Z,102226.02
2024-01-09T19:22:47.083Z,102220.52
2024-01-09T19:25:15.832Z,102216.05
2024-01-09T19:27:44.432Z,102212.09
2024-01-09T19:30:13.281Z,102213.08
2024-01-09T19:32:42.263Z,102215.92
2024-01-09T19:35:14.204Z,102215.19
2024-01-09T19:37:47.786Z,102212.41
2024-01-09T19:40:16.620Z,102214.22
2024-01-09T19:42:45.051Z,102213.98
2024-01-09T19:45:13.532Z,102212.62
2024-01-09T19:47:45.134Z,102213.07
2024-01-09T19:50:16.280Z,102215.02
2024-01-09T19:52:44.805Z,102215.11
2024-01-09T19:55:14.517Z,102213.73
2024-01-09T19:58:15.360Z,102211.66
2024-01-09T20:00:45.150Z,102214.45
2024-01-09T20:03:13.772Z,102211.52
2024-01-09T20:05:42.575Z,102217.54
2024-01-09T20:08:41.868Z,102219.49
2024-01-09T20:11:32.821Z,102218.02
2024-01-09T20:14:01.770Z,102213.37
2024-01-09T20:16:30.610Z,102209.62
2024-01-09T20:19:00.571Z,102209.07
2024-01-09T20:21:36.668Z,102208.95
2024-01-09T20:24:16.016Z,102207.10
2024-01-09T20:26:50.232Z,102209.75
2024-01-09T20:29:19.003Z,102205.65
2024-01-09T20:31:47.636Z,102205.13
2024-01-09T20:34:25.186Z,102206.98
2024-01-09T20:36:55.946Z,102206.83
2024-01-09T20:39:26.557Z,102203.73
2024-01-09T20:41:57.527Z,102205.89
2024-01-09T20:44:27.793Z,102204.36
2024-01-09T20:47:05.127Z,102196.98
2024-01-09T20:49:48.924Z,102190.89
2024-01-09T20:52:18.926Z,102187.89
2024-01-09T20:54:47.481Z,102191.49
2024-01-09T21:00:17.101Z,102186.84
2024-01-09T21:05:58.687Z,102189.48
2024-01-09T21:09:17.025Z,102195.54
2024-01-09T21:11:51.303Z,102193.82
2024-01-09T21:15:04.336Z,102192.17
2024-01-09T21:20:49.007Z,102195.61
2024-01-09T21:23:41.601Z,102195.23
2024-01-09T21:26:33.727Z,102192.87
2024-01-09T21:29:03.368Z,102186.95
2024-01-09T21:32:01.934Z,102190.71
2024-01-09T21:34:31.719Z,102189.66
2024-01-09T21:37:48.614Z,102186.92
2024-01-09T21:43:49.749Z,102192.25
2024-01-09T21:46:18.426Z,102192.91
2024-01-09T21:48:48.029Z,102193.93
2024-01-09T21:51:19.717Z,102197.27
2024-01-09T21:53:48.123Z,102198.13
2024-01-09T21:56:16.764Z,102197.25
2024-01-09T21:58:45.574Z,102193.52
2024-01-09T22:01:14.084Z,102190.79
2024-01-09T22:03:42.649Z,102191.80
2024-01-09T22:06:11.231Z,102190.27
2024-01-09T22:08:39.713Z,102183.46
2024-01-09T22:11:08.274Z,102180.90
2024-01-09T22:13:37.009Z,102182.35
2024-01-09T22:19:03.049Z,102176.23
2024-01-09T22:21:32.443Z,102174.16
2024-01-09T22:24:01.118Z,102173.77
2024-01-09T22:26:29.647Z,102172.92
2024-01-09T22:28:59.025Z,102170.55
2024-01-09T22:31:27.486Z,102166.63
2024-01-09T22:33:56.004Z,102161.83
2024-01-09T22:36:25.193Z,102159.05
2024-01-09T22:38:53.513Z,102162.42
2024-01-09T22:41:22.748Z,102161.42
2024-01-09T22:43:54.491Z,102164.79
2024-01-09T22:46:22.954Z,102156.09
2024-01-09T22:48:51.353Z,102153.02
2024-01-09T22:51:19.746Z,102149.61
2024-01-09T22:53:48.118Z,102145.87
2024-01-09T22:56:17.884Z,102142.46
2024-01-09T22:58:46.735Z,102140.05
2024-01-09T23:01:15.248Z,102139.20
2024-01-09T23:03:43.830Z,102138.83
2024-01-09T23:06:12.751Z,102137.98
2024-01-09T23:08:41.802Z,102134.10
2024-01-09T23:11:10.615Z,102127.69
2024-01-09T23:13:42.816Z,102121.89
2024-01-09T23:16:11.462Z,102117.98
2024-01-09T23:18:40.270Z,102115.05
2024-01-09T23:21:09.137Z,102114.64
2024-01-09T23:23:37.932Z,102118.71
2024-01-09T23:26:06.377Z,102117.19
2024-01-09T23:28:35.323Z,102115.91
2024-01-09T23:31:04.791Z,102110.14
2024-01-09T23:33:33.490Z,102108.48
2024-01-09T23:36:02.052Z,102108.73
2024-01-09T23:38:30.523Z,102106.89
2024-01-09T23:40:58.975Z,102103.81
2024-01-09T23:43:28.102Z,102098.11
2024-01-09T23:45:56.529Z,102098.02
2024-01-09T23:48:25.071Z,102096.27
2024-01-09T23:50:53.724Z,102095.80
2024-01-09T23:53:22.211Z,102100.73
2024-01-09T23:55:50.727Z,102102.52
2024-01-09T23:58:19.317Z,102102.77
